Pagrindinis puslapis
METAR-TAF:

METAR-TAF

Oro uostai :

Kinloss, Škotija

platuma: 57-39N, ilguma: 003-34W, Aukštis: 7 m

Dabartinis oras

Ataskaita buvo paskelbta 34 minutes, ne 17:20 UTC
Vėjas 17 kt iš Pietų/Pietvakarių
Temperatūra 5°C
Drėgmė 70%
Slėgis 990 hPa
Matomumas 10 km arba daugiau

METAR: EGQK 291720Z AUTO 21017KT 9999 FEW250/// 05/00 Q0990

Laikas: 17:54 (17:54 UTC)


TAF: trūkstamas

Orai ataskaitas ir orų prognozės (METAR, TAF).

turimą stotys yra geltonos ir raudonos taškus žemėlapyje.

Perkelti pele per norėdami pamatyti stoties vardą.

Tada spustelėkite, norėdami matyti oro stebėjimo ir prognozės.

Norėdami pakeisti žemėlapį: spustelėkite ant žalios mygtukų su juodo kryžiaus žemyn,; žalią mygtuką su brūkšneliu, jei norite nutolinti; arba žalių rodyklių gretimoms žemėlapius.


METAR-TAF: